Time;durP1;ratioP1;P1;durP2;ratioP2;P2;SDS_P1;SDS_P2;PMS_P1;PMS_P2;Temp;Humidity;BMP_temperature;BMP_pressure;BME280_temperature;BME280_humidity;BME280_pressure;Samples;Min_cycle;Max_cycle;Signal;HPM_P1;HPM_P2
2023/07/10 00:00:34;;;;;;;10.68;1.80;;;;;;;14.13;100.00;100373.88;5129363;27;20035;-80
2023/07/10 00:03:00;;;;;;;16.38;2.22;;;;;;;14.18;100.00;100370.72;5114374;27;20049;-79
2023/07/10 00:05:25;;;;;;;8.07;1.48;;;;;;;14.21;100.00;100376.53;5124447;27;20486;-80
2023/07/10 00:07:51;;;;;;;11.02;1.38;;;;;;;14.20;100.00;100369.56;5122199;27;20063;-80
2023/07/10 00:10:17;;;;;;;7.63;1.60;;;;;;;14.21;100.00;100373.03;5108733;27;20106;-81
2023/07/10 00:12:44;;;;;;;8.20;1.75;;;;;;;14.21;100.00;100368.56;5124958;27;20027;-79
2023/07/10 00:15:19;;;;;;;20.10;2.08;;;;;;;14.22;100.00;100370.19;5105530;27;20114;-79
2023/07/10 00:17:49;;;;;;;9.75;1.80;;;;;;;14.18;100.00;100374.22;5143236;27;20053;-80
2023/07/10 00:20:17;;;;;;;10.50;1.83;;;;;;;14.25;100.00;100369.06;5106218;27;20059;-79
2023/07/10 00:22:43;;;;;;;9.13;1.40;;;;;;;14.26;100.00;100371.53;5145871;27;20030;-80
2023/07/10 00:25:10;;;;;;;9.43;1.35;;;;;;;14.24;100.00;100365.56;5113389;27;20046;-80
2023/07/10 00:27:35;;;;;;;15.15;2.13;;;;;;;14.24;100.00;100368.22;5129706;27;20035;-81
2023/07/10 00:30:02;;;;;;;14.65;1.95;;;;;;;14.24;100.00;100376.19;5150201;27;20501;-80
2023/07/10 00:32:28;;;;;;;20.92;1.80;;;;;;;14.23;100.00;100361.25;5124964;27;20518;-79
2023/07/10 00:34:54;;;;;;;12.05;1.63;;;;;;;14.23;100.00;100363.91;5109850;27;20070;-79
2023/07/10 00:37:19;;;;;;;12.57;1.83;;;;;;;14.20;100.00;100366.91;5126232;27;20051;-80
2023/07/10 00:39:45;;;;;;;10.32;1.70;;;;;;;14.20;100.00;100358.09;5102210;27;20030;-79
2023/07/10 00:42:20;;;;;;;6.90;1.23;;;;;;;14.28;100.00;100363.41;5120042;27;20050;-80
2023/07/10 00:44:53;;;;;;;14.02;2.20;;;;;;;14.27;100.00;100359.91;5124665;27;20034;-76
2023/07/10 00:47:34;;;;;;;9.02;1.67;;;;;;;14.33;100.00;100352.25;5103379;27;20487;-77
2023/07/10 00:50:08;;;;;;;8.95;1.98;;;;;;;14.35;100.00;100352.91;5112445;27;20031;-80
2023/07/10 00:52:49;;;;;;;6.75;1.45;;;;;;;14.34;100.00;100348.56;5109972;27;20073;-80
2023/07/10 00:55:31;;;;;;;8.35;2.10;;;;;;;14.36;100.00;100350.09;5096830;27;20036;-81
2023/07/10 00:58:17;;;;;;;8.50;1.58;;;;;;;14.41;100.00;100348.72;5129795;27;20030;-80
2023/07/10 01:01:08;;;;;;;9.48;1.50;;;;;;;14.42;100.00;100340.56;5097790;27;20103;-80
2023/07/10 01:03:35;;;;;;;14.38;2.22;;;;;;;14.41;100.00;100338.09;5126825;27;20499;-80
2023/07/10 01:06:07;;;;;;;8.55;1.85;;;;;;;14.40;100.00;100334.59;5113721;27;20069;-80
2023/07/10 01:08:37;;;;;;;10.75;2.03;;;;;;;14.37;100.00;100337.59;5111689;27;20078;-81
2023/07/10 01:11:02;;;;;;;9.25;1.90;;;;;;;14.33;100.00;100341.63;5102625;27;20030;-78
2023/07/10 01:13:28;;;;;;;11.25;1.33;;;;;;;14.34;100.00;100340.59;5115800;27;20509;-79
2023/07/10 01:15:54;;;;;;;12.65;1.40;;;;;;;14.33;100.00;100333.63;5096476;27;20043;-78
2023/07/10 01:18:24;;;;;;;9.50;1.60;;;;;;;14.37;100.00;100338.44;5119330;27;20090;-78
2023/07/10 01:21:10;;;;;;;10.25;1.88;;;;;;;14.39;100.00;100331.13;5110804;27;20039;-81
2023/07/10 01:23:36;;;;;;;14.38;1.70;;;;;;;14.40;100.00;100334.59;5154404;27;20030;-79
2023/07/10 01:26:06;;;;;;;13.82;1.83;;;;;;;14.43;100.00;100330.78;5127513;27;20053;-79
2023/07/10 01:28:35;;;;;;;13.15;1.42;;;;;;;14.43;100.00;100336.09;5133887;27;20031;-79
2023/07/10 01:31:08;;;;;;;15.48;2.05;;;;;;;14.46;100.00;100336.56;5107750;27;20518;-78
2023/07/10 01:33:42;;;;;;;9.23;1.70;;;;;;;14.45;100.00;100336.72;5134069;27;20050;-78
2023/07/10 01:36:12;;;;;;;9.63;1.88;;;;;;;14.42;100.00;100332.59;5097096;27;20030;-78
2023/07/10 01:39:01;;;;;;;15.45;2.55;;;;;;;14.44;100.00;100332.44;5135195;27;20483;-81
2023/07/10 01:41:34;;;;;;;13.63;1.80;;;;;;;14.42;100.00;100329.09;5124369;27;20549;-80
2023/07/10 01:44:00;;;;;;;11.13;1.80;;;;;;;14.38;100.00;100324.13;5115941;27;20583;-80
2023/07/10 01:46:27;;;;;;;7.60;1.35;;;;;;;14.43;100.00;100325.47;5116550;27;20070;-78
2023/07/10 01:48:58;;;;;;;13.48;2.25;;;;;;;14.45;100.00;100329.59;5102242;27;20035;-79
2023/07/10 01:51:23;;;;;;;11.77;1.65;;;;;;;14.45;100.00;100323.44;5096155;27;20036;-80
2023/07/10 01:53:50;;;;;;;11.63;2.05;;;;;;;14.48;100.00;100318.59;5116128;27;20049;-80
2023/07/10 01:56:19;;;;;;;10.00;1.67;;;;;;;14.54;100.00;100326.91;5116729;27;20023;-78
2023/07/10 01:58:46;;;;;;;11.82;1.80;;;;;;;14.55;100.00;100320.56;5125858;27;20050;-78
2023/07/10 02:01:12;;;;;;;14.18;1.90;;;;;;;14.56;100.00;100316.91;5128352;27;20027;-77
2023/07/10 02:03:38;;;;;;;11.55;2.10;;;;;;;14.56;100.00;100314.25;5109007;27;20058;-78
2023/07/10 02:06:04;;;;;;;10.50;1.90;;;;;;;14.57;100.00;100307.94;5129954;27;20043;-78
2023/07/10 02:08:30;;;;;;;12.05;2.17;;;;;;;14.54;100.00;100309.09;5128304;27;20043;-78
2023/07/10 02:10:56;;;;;;;11.10;2.45;;;;;;;14.52;100.00;100311.94;5107232;27;20034;-78
2023/07/10 02:13:25;;;;;;;15.82;2.30;;;;;;;14.51;100.00;100304.97;5118780;27;20062;-78
2023/07/10 02:15:52;;;;;;;10.02;1.75;;;;;;;14.51;100.00;100307.63;5099988;27;20067;-74
2023/07/10 02:18:17;;;;;;;15.23;1.75;;;;;;;14.49;100.00;100301.63;5110977;28;20039;-79
2023/07/10 02:20:44;;;;;;;8.65;1.92;;;;;;;14.49;100.00;100298.97;5093714;27;20035;-79
2023/07/10 02:23:09;;;;;;;9.65;1.55;;;;;;;14.46;100.00;100290.53;5111489;28;20042;-80
2023/07/10 02:25:36;;;;;;;10.80;1.90;;;;;;;14.38;100.00;100284.25;5130816;27;20027;-80
2023/07/10 02:28:01;;;;;;;10.50;2.20;;;;;;;14.34;100.00;100284.75;5097430;27;20043;-78
2023/07/10 02:30:27;;;;;;;13.15;1.92;;;;;;;14.30;100.00;100286.94;5093584;28;20114;-79
2023/07/10 02:32:53;;;;;;;9.13;1.77;;;;;;;14.29;100.00;100272.00;5092188;27;20547;-79
2023/07/10 02:35:19;;;;;;;10.98;2.08;;;;;;;14.26;100.00;100280.31;5113097;27;20031;-77
2023/07/10 02:37:45;;;;;;;9.38;1.80;;;;;;;14.27;100.00;100274.81;5124249;27;20031;-79
2023/07/10 02:40:11;;;;;;;12.27;1.92;;;;;;;14.24;100.00;100272.50;5113875;27;20092;-80
2023/07/10 02:42:36;;;;;;;7.13;2.03;;;;;;;14.23;100.00;100270.88;5114337;27;20039;-81
2023/07/10 02:45:03;;;;;;;17.45;2.15;;;;;;;14.24;100.00;100261.88;5110473;27;20023;-80
2023/07/10 02:47:29;;;;;;;13.85;1.92;;;;;;;14.27;100.00;100263.34;5111209;27;20543;-80
2023/07/10 02:49:56;;;;;;;9.63;1.65;;;;;;;14.26;100.00;100265.19;5130648;27;20444;-80
2023/07/10 02:52:22;;;;;;;11.88;1.70;;;;;;;14.30;100.00;100264.84;5110581;27;20075;-78
2023/07/10 02:54:47;;;;;;;14.68;2.00;;;;;;;14.32;100.00;100254.84;5123223;27;20039;-80
2023/07/10 02:57:13;;;;;;;14.52;2.03;;;;;;;14.33;100.00;100249.41;5125490;27;20085;-79
2023/07/10 02:59:39;;;;;;;8.27;1.83;;;;;;;14.38;100.00;100254.19;5122017;27;20047;-79
2023/07/10 03:02:05;;;;;;;7.28;1.38;;;;;;;14.39;100.00;100245.19;5096564;27;20042;-79
2023/07/10 03:04:31;;;;;;;15.63;1.80;;;;;;;14.42;100.00;100250.16;5109695;27;20023;-78
2023/07/10 03:06:57;;;;;;;13.35;2.45;;;;;;;14.42;100.00;100246.66;5129268;27;20038;-79
2023/07/10 03:09:23;;;;;;;11.15;2.13;;;;;;;14.39;100.00;100235.41;5110326;27;20038;-80
2023/07/10 03:11:49;;;;;;;10.23;2.03;;;;;;;14.41;100.00;100235.22;5113761;27;20046;-80
2023/07/10 03:14:15;;;;;;;10.75;1.73;;;;;;;14.44;100.00;100234.03;5093967;27;20039;-80
2023/07/10 03:16:41;;;;;;;16.15;2.25;;;;;;;14.45;100.00;100236.53;5104095;27;20047;-79
2023/07/10 03:19:06;;;;;;;13.32;2.47;;;;;;;14.45;100.00;100244.50;5112464;27;20080;-80
2023/07/10 03:21:32;;;;;;;13.75;1.73;;;;;;;14.46;100.00;100232.03;5113401;27;20088;-80
2023/07/10 03:24:00;;;;;;;11.13;2.17;;;;;;;14.46;100.00;100234.69;5092700;27;20035;-80
2023/07/10 03:26:26;;;;;;;13.65;1.70;;;;;;;14.45;100.00;100241.00;5127449;27;20646;-80
2023/07/10 03:29:21;;;;;;;11.15;2.00;;;;;;;14.47;100.00;100239.84;5108411;28;20035;-81
2023/07/10 03:31:47;;;;;;;11.85;2.30;;;;;;;14.41;100.00;100235.22;5067925;28;20032;-80
2023/07/10 03:34:14;;;;;;;13.35;2.20;;;;;;;14.42;100.00;100222.75;5122827;27;20034;-80
2023/07/10 03:36:41;;;;;;;14.73;2.10;;;;;;;14.40;100.00;100225.56;5111032;27;20035;-80
2023/07/10 03:39:08;;;;;;;9.05;1.95;;;;;;;14.43;100.00;100229.72;5109732;27;20118;-80
2023/07/10 03:41:34;;;;;;;14.98;1.92;;;;;;;14.42;100.00;100226.22;5128474;27;20113;-80
2023/07/10 03:44:00;;;;;;;12.55;1.95;;;;;;;14.44;100.00;100224.25;5110704;27;20027;-79
2023/07/10 03:46:26;;;;;;;11.90;1.92;;;;;;;14.45;100.00;100212.59;5129567;27;20031;-79
2023/07/10 03:48:52;;;;;;;10.95;1.67;;;;;;;14.47;100.00;100217.72;5126472;27;20027;-79
2023/07/10 03:51:18;;;;;;;8.48;1.58;;;;;;;14.54;100.00;100215.19;5124782;27;20035;-80
2023/07/10 03:53:48;;;;;;;5.65;1.08;;;;;;;14.57;100.00;100212.19;5129525;27;20031;-81
2023/07/10 03:56:14;;;;;;;9.73;1.55;;;;;;;14.57;100.00;100209.53;5129553;27;20027;-81
2023/07/10 03:58:43;;;;;;;11.48;2.38;;;;;;;14.60;100.00;100201.19;5112016;28;20051;-80
2023/07/10 04:01:10;;;;;;;8.15;1.75;;;;;;;14.59;100.00;100199.53;5086057;28;20427;-80
2023/07/10 04:03:37;;;;;;;8.98;1.70;;;;;;;14.60;100.00;100196.72;5123221;27;20140;-79
2023/07/10 04:06:05;;;;;;;26.00;3.25;;;;;;;14.54;100.00;100194.72;5125223;28;20516;-80
2023/07/10 04:08:34;;;;;;;9.02;1.67;;;;;;;14.59;100.00;100194.19;5116829;28;20115;-79
2023/07/10 04:11:11;;;;;;;19.88;2.22;;;;;;;14.60;100.00;100193.22;5124824;28;20180;-80
2023/07/10 04:13:37;;;;;;;15.93;2.40;;;;;;;14.57;100.00;100198.88;5111623;28;20023;-80
2023/07/10 04:16:16;;;;;;;8.98;2.03;;;;;;;14.55;100.00;100192.91;5105142;28;20602;-77
2023/07/10 04:18:45;;;;;;;22.77;2.40;;;;;;;14.53;100.00;100193.09;5093797;28;20043;-75
2023/07/10 04:21:15;;;;;;;21.50;2.42;;;;;;;14.53;100.00;100190.44;5125342;27;20079;-79
2023/07/10 04:23:40;;;;;;;23.75;3.15;;;;;;;14.50;100.00;100191.63;5114633;27;20046;-80
2023/07/10 04:26:13;;;;;;;14.48;2.28;;;;;;;14.53;100.00;100190.44;5131062;27;20030;-77
2023/07/10 04:28:39;;;;;;;19.58;2.67;;;;;;;14.51;100.00;100192.44;5127469;27;20069;-76
2023/07/10 04:31:05;;;;;;;15.23;2.33;;;;;;;14.52;100.00;100197.56;5128820;27;20057;-79
2023/07/10 04:33:31;;;;;;;12.52;2.17;;;;;;;14.52;100.00;100186.94;5120087;27;20391;-80
2023/07/10 04:35:57;;;;;;;19.42;2.33;;;;;;;14.55;100.00;100191.09;5114101;27;20125;-79
2023/07/10 04:38:28;;;;;;;15.98;2.05;;;;;;;14.57;100.00;100186.41;5130195;27;20038;-79
2023/07/10 04:40:59;;;;;;;12.75;2.67;;;;;;;14.59;100.00;100186.22;5115190;27;20396;-79
2023/07/10 04:43:26;;;;;;;19.70;2.65;;;;;;;14.56;100.00;100189.25;5118384;27;20035;-79
2023/07/10 04:45:54;;;;;;;10.25;2.47;;;;;;;14.57;100.00;100180.28;5128976;27;20099;-79
2023/07/10 04:48:21;;;;;;;16.52;2.78;;;;;;;14.54;100.00;100180.63;5098749;27;20031;-78
2023/07/10 04:50:48;;;;;;;11.63;2.00;;;;;;;14.56;100.00;100179.44;5119286;27;20110;-79
2023/07/10 04:53:15;;;;;;;12.00;2.58;;;;;;;14.57;100.00;100170.44;5116425;27;20033;-78
2023/07/10 04:55:43;;;;;;;19.58;2.60;;;;;;;14.57;100.00;100172.28;5122279;27;20036;-79
2023/07/10 04:58:09;;;;;;;16.17;2.70;;;;;;;14.54;100.00;100168.13;5114154;27;20047;-80
2023/07/10 05:00:36;;;;;;;15.55;2.47;;;;;;;14.54;100.00;100178.78;5114267;27;20551;-79
2023/07/10 05:03:03;;;;;;;11.75;2.30;;;;;;;14.53;100.00;100174.47;5153838;27;20108;-79
2023/07/10 05:05:29;;;;;;;8.93;1.90;;;;;;;14.54;100.00;100170.78;5131521;27;20109;-80
2023/07/10 05:07:55;;;;;;;11.93;2.95;;;;;;;14.50;100.00;100159.72;5113990;27;20110;-81
2023/07/10 05:10:20;;;;;;;13.05;2.03;;;;;;;14.47;100.00;100157.41;5127990;27;20030;-80
2023/07/10 05:12:46;;;;;;;11.60;2.10;;;;;;;14.49;100.00;100158.03;5131154;27;20081;-80
2023/07/10 05:15:12;;;;;;;14.13;2.35;;;;;;;14.50;100.00;100159.72;5152872;27;20043;-80
2023/07/10 05:17:39;;;;;;;17.08;2.40;;;;;;;14.47;100.00;100156.56;5058618;27;20035;-79
2023/07/10 05:20:06;;;;;;;17.08;2.63;;;;;;;14.47;100.00;100153.91;5134188;27;20126;-79
2023/07/10 05:22:32;;;;;;;16.85;2.38;;;;;;;14.49;100.00;100155.38;5113396;27;20038;-79
2023/07/10 05:24:59;;;;;;;16.35;3.05;;;;;;;14.51;100.00;100153.38;5115576;27;20030;-78
2023/07/10 05:27:25;;;;;;;15.90;2.00;;;;;;;14.51;100.00;100148.06;5111097;27;20113;-78
2023/07/10 05:29:51;;;;;;;7.97;1.95;;;;;;;14.48;100.00;100151.06;5140914;27;20387;-76
2023/07/10 05:32:17;;;;;;;8.15;1.45;;;;;;;14.50;100.00;100151.72;5132863;27;20030;-76
2023/07/10 05:34:43;;;;;;;15.50;2.53;;;;;;;14.50;100.00;100153.56;5133726;27;20041;-78
2023/07/10 05:37:08;;;;;;;7.43;1.90;;;;;;;14.51;100.00;100152.53;5132502;27;20360;-79
2023/07/10 05:39:34;;;;;;;11.27;2.30;;;;;;;14.50;100.00;100146.41;5115456;27;20410;-77
2023/07/10 05:42:00;;;;;;;12.38;2.75;;;;;;;14.51;100.00;100144.56;5136590;27;20031;-79
2023/07/10 05:44:26;;;;;;;11.45;2.20;;;;;;;14.52;100.00;100143.56;5110544;27;20095;-79
2023/07/10 05:46:55;;;;;;;12.35;2.25;;;;;;;14.52;100.00;100135.59;5092615;27;20035;-79
2023/07/10 05:49:24;;;;;;;18.77;2.40;;;;;;;14.53;100.00;100137.25;5118387;27;20026;-78
2023/07/10 05:51:53;;;;;;;12.75;2.28;;;;;;;14.51;100.00;100142.75;5119515;27;20071;-79
2023/07/10 05:54:20;;;;;;;12.38;2.22;;;;;;;14.47;100.00;100137.97;5144267;27;20045;-78
2023/07/10 05:56:47;;;;;;;12.95;2.08;;;;;;;14.47;100.00;100144.09;5154394;27;20471;-79
2023/07/10 05:59:14;;;;;;;16.50;2.95;;;;;;;14.44;100.00;100136.50;5132381;27;20043;-79
2023/07/10 06:01:40;;;;;;;16.35;2.58;;;;;;;14.46;100.00;100136.31;5107421;28;20036;-80
2023/07/10 06:04:06;;;;;;;17.67;2.90;;;;;;;14.48;100.00;100134.28;5130944;27;20110;-79
2023/07/10 06:06:32;;;;;;;15.48;2.70;;;;;;;14.51;100.00;100134.75;5115872;27;20042;-79
2023/07/10 06:08:58;;;;;;;12.95;2.65;;;;;;;14.56;100.00;100134.22;5095343;27;20154;-79
2023/07/10 06:11:24;;;;;;;12.38;2.55;;;;;;;14.63;100.00;100132.53;5132658;27;20035;-79
2023/07/10 06:13:50;;;;;;;17.58;3.30;;;;;;;14.68;100.00;100125.81;5114883;27;20061;-78
2023/07/10 06:16:16;;;;;;;13.93;2.65;;;;;;;14.71;100.00;100122.81;5111666;27;20472;-79
2023/07/10 06:18:42;;;;;;;10.20;2.25;;;;;;;14.74;100.00;100123.28;5124803;27;20033;-78
2023/07/10 06:21:10;;;;;;;17.80;2.65;;;;;;;14.80;100.00;100126.25;5126662;27;20035;-79
2023/07/10 06:23:37;;;;;;;19.20;2.53;;;;;;;14.80;100.00;100120.91;5114170;27;20031;-79
2023/07/10 06:26:03;;;;;;;9.07;1.95;;;;;;;14.80;100.00;100121.75;5131906;27;20038;-79
2023/07/10 06:28:30;;;;;;;10.57;2.35;;;;;;;14.83;100.00;100105.44;5111826;27;20038;-79
2023/07/10 06:30:59;;;;;;;15.05;2.90;;;;;;;14.81;100.00;100106.63;5128715;27;20054;-79
2023/07/10 06:33:27;;;;;;;21.15;2.67;;;;;;;14.74;100.00;100096.69;5127484;27;20147;-79
2023/07/10 06:35:54;;;;;;;13.65;2.28;;;;;;;14.69;100.00;100091.06;5125337;27;20034;-79
2023/07/10 06:38:20;;;;;;;12.82;2.30;;;;;;;14.64;100.00;100085.44;5130440;27;20425;-79
2023/07/10 06:40:50;;;;;;;13.65;2.40;;;;;;;14.67;100.00;100093.06;5132505;27;20035;-79
2023/07/10 06:43:20;;;;;;;17.15;2.85;;;;;;;14.71;100.00;100093.53;5096068;27;20054;-79
2023/07/10 06:45:47;;;;;;;14.77;2.30;;;;;;;14.70;100.00;100089.25;5131503;27;20039;-79
2023/07/10 06:48:13;;;;;;;9.88;2.22;;;;;;;14.71;100.00;100088.22;5106581;28;20019;-79
2023/07/10 06:50:39;;;;;;;15.45;2.85;;;;;;;14.73;100.00;100092.34;5126262;27;20031;-79
2023/07/10 06:53:05;;;;;;;20.85;3.63;;;;;;;14.76;100.00;100083.19;5132292;27;20479;-78
2023/07/10 06:55:32;;;;;;;21.33;3.05;;;;;;;14.79;100.00;100074.88;5129212;27;20035;-77
2023/07/10 06:57:58;;;;;;;13.77;2.58;;;;;;;14.80;100.00;100079.19;5088545;27;20038;-76
2023/07/10 07:00:24;;;;;;;16.52;2.80;;;;;;;14.81;100.00;100086.16;5110324;27;20051;-79
2023/07/10 07:02:50;;;;;;;12.07;2.58;;;;;;;14.81;100.00;100082.69;5093637;28;20257;-79
2023/07/10 07:05:16;;;;;;;12.57;2.58;;;;;;;14.82;100.00;100082.50;5088706;27;20609;-79
2023/07/10 07:07:43;;;;;;;9.60;2.17;;;;;;;14.85;100.00;100079.47;5130122;27;20027;-80
2023/07/10 07:10:15;;;;;;;11.25;2.00;;;;;;;14.88;100.00;100075.63;5131444;27;20103;-79
2023/07/10 07:12:42;;;;;;;7.47;1.73;;;;;;;14.82;100.00;100074.53;5113287;27;20054;-79
2023/07/10 07:15:10;;;;;;;6.78;1.70;;;;;;;14.86;100.00;100077.63;5095268;27;20406;-79
2023/07/10 07:17:36;;;;;;;9.68;2.08;;;;;;;14.90;100.00;100078.94;5112372;27;20043;-78
2023/07/10 07:20:02;;;;;;;8.25;1.80;;;;;;;14.95;100.00;100079.22;5129827;27;20035;-79
2023/07/10 07:22:28;;;;;;;9.57;1.90;;;;;;;14.98;100.00;100073.53;5112687;27;20031;-79
2023/07/10 07:24:54;;;;;;;9.95;2.03;;;;;;;15.02;100.00;100073.16;5130095;27;20111;-79
2023/07/10 07:27:20;;;;;;;12.27;1.98;;;;;;;15.07;100.00;100068.94;5129641;27;20644;-78
2023/07/10 07:29:50;;;;;;;9.40;1.80;;;;;;;15.14;100.00;100066.38;5129606;27;20046;-79
2023/07/10 07:32:17;;;;;;;9.20;1.63;;;;;;;15.16;100.00;100063.53;5130257;27;20433;-79
2023/07/10 07:34:42;;;;;;;7.78;1.67;;;;;;;15.20;100.00;100062.13;5128690;27;20080;-78
2023/07/10 07:37:08;;;;;;;5.18;1.13;;;;;;;15.25;100.00;100067.72;5116930;27;20024;-79
2023/07/10 07:39:34;;;;;;;7.32;1.55;;;;;;;15.28;100.00;100053.22;5125363;27;20632;-79
2023/07/10 07:42:01;;;;;;;8.63;1.52;;;;;;;15.33;100.00;100058.81;5092999;28;20035;-79
2023/07/10 07:44:27;;;;;;;6.70;1.40;;;;;;;15.37;100.00;100068.91;5112553;27;20031;-79
2023/07/10 07:46:53;;;;;;;8.45;1.50;;;;;;;15.43;100.00;100058.53;5115342;27;20049;-79
2023/07/10 07:49:23;;;;;;;5.63;1.50;;;;;;;15.50;100.00;100064.75;5127747;27;20034;-78
2023/07/10 07:51:51;;;;;;;5.93;1.58;;;;;;;15.59;100.00;100060.16;5085803;28;20043;-79
2023/07/10 07:54:17;;;;;;;5.70;1.30;;;;;;;15.65;100.00;100055.91;5110144;28;20070;-80
2023/07/10 07:56:43;;;;;;;7.28;1.38;;;;;;;15.69;100.00;100057.19;5110019;28;20043;-77
2023/07/10 07:59:09;;;;;;;4.53;1.02;;;;;;;15.72;100.00;100054.13;5108315;28;20491;-77
2023/07/10 08:01:35;;;;;;;2.63;0.82;;;;;;;15.70;100.00;100049.00;5121852;28;20035;-79
2023/07/10 08:04:01;;;;;;;2.42;0.75;;;;;;;15.72;100.00;100048.81;5129229;28;20035;-80
2023/07/10 08:06:33;;;;;;;6.43;1.08;;;;;;;15.80;100.00;100043.38;5091276;28;20501;-77
2023/07/10 08:09:00;;;;;;;7.72;0.95;;;;;;;15.86;100.00;100047.13;5110081;28;20118;-77
2023/07/10 08:11:26;;;;;;;4.80;1.08;;;;;;;15.95;100.00;100042.50;5117423;28;20531;-79
2023/07/10 08:13:52;;;;;;;2.53;0.70;;;;;;;16.02;100.00;100038.09;5109777;28;20118;-79
2023/07/10 08:16:19;;;;;;;2.45;0.82;;;;;;;16.06;100.00;100031.38;5112104;28;20028;-79
2023/07/10 08:18:45;;;;;;;5.65;1.13;;;;;;;16.10;100.00;100029.16;5091481;28;20031;-79
2023/07/10 08:21:13;;;;;;;3.70;0.95;;;;;;;16.20;100.00;100034.13;5129169;28;20035;-77
2023/07/10 08:23:39;;;;;;;4.43;1.13;;;;;;;16.28;100.00;100022.50;5128095;28;20027;-77
2023/07/10 08:26:06;;;;;;;5.82;1.00;;;;;;;16.38;100.00;100031.00;5114540;28;20027;-79
2023/07/10 08:28:32;;;;;;;2.95;0.90;;;;;;;16.45;100.00;100025.75;5118968;28;20092;-79
2023/07/10 08:30:58;;;;;;;4.55;0.90;;;;;;;16.55;100.00;100033.38;5110741;28;20035;-80
2023/07/10 08:33:24;;;;;;;5.15;1.15;;;;;;;16.59;100.00;100024.81;5112378;28;20023;-79
2023/07/10 08:35:58;;;;;;;6.07;1.23;;;;;;;16.61;100.00;100032.63;5112748;28;20054;-80
2023/07/10 08:38:24;;;;;;;6.38;1.20;;;;;;;16.62;100.00;100031.59;5124137;28;20034;-78
2023/07/10 08:40:54;;;;;;;9.02;1.42;;;;;;;16.73;100.00;100030.22;5122199;28;20043;-80
2023/07/10 08:43:40;;;;;;;5.20;1.33;;;;;;;16.84;100.00;100027.03;5122561;28;20031;-80
2023/07/10 08:46:10;;;;;;;5.10;1.48;;;;;;;17.08;100.00;100024.09;5128070;28;20095;-81
2023/07/10 08:48:39;;;;;;;6.20;1.35;;;;;;;17.21;100.00;100024.16;5078300;28;20040;-80
2023/07/10 08:51:20;;;;;;;7.47;1.52;;;;;;;17.37;100.00;100006.16;5110911;28;20121;-80
2023/07/10 08:53:58;;;;;;;7.60;1.77;;;;;;;17.40;100.00;100007.56;5130569;27;20088;-80
2023/07/10 08:56:28;;;;;;;10.35;1.50;;;;;;;17.32;100.00;100009.41;5094259;28;20039;-79
2023/07/10 08:59:03;;;;;;;8.68;1.80;;;;;;;17.32;100.00;100004.06;5127481;28;20058;-78
2023/07/10 09:01:36;;;;;;;7.65;1.60;;;;;;;17.26;100.00;99991.53;5127003;28;20023;-77
2023/07/10 09:04:04;;;;;;;10.32;2.28;;;;;;;17.36;100.00;100002.63;5128285;28;20027;-78
2023/07/10 09:06:43;;;;;;;10.13;1.90;;;;;;;17.54;100.00;100006.59;5121410;27;20068;-81
2023/07/10 09:09:24;;;;;;;11.35;1.40;;;;;;;17.60;100.00;99996.94;5115667;27;20023;-80
2023/07/10 09:11:52;;;;;;;7.22;2.08;;;;;;;17.59;100.00;99997.97;5105695;27;20049;-80
2023/07/10 09:14:40;;;;;;;9.23;1.70;;;;;;;17.73;100.00;99994.31;5133669;27;20039;-80
2023/07/10 09:17:19;;;;;;;13.13;2.10;;;;;;;17.86;100.00;99981.97;5115574;27;20035;-78
2023/07/10 09:19:51;;;;;;;7.20;1.83;;;;;;;17.76;100.00;99976.22;5111918;27;20031;-81
2023/07/10 09:22:18;;;;;;;6.10;1.60;;;;;;;17.59;100.00;99981.94;5126423;27;20046;-80
2023/07/10 09:24:44;;;;;;;7.70;2.13;;;;;;;17.52;100.00;99973.91;5115035;27;20027;-80
2023/07/10 09:27:14;;;;;;;8.70;1.25;;;;;;;17.54;100.00;99971.03;5131635;27;20031;-80
2023/07/10 09:29:43;;;;;;;7.80;2.65;;;;;;;17.65;100.00;99966.94;5109814;27;20035;-80
2023/07/10 09:32:17;;;;;;;14.40;1.90;;;;;;;17.84;100.00;99963.47;5112785;27;21041;-80
2023/07/10 09:34:50;;;;;;;6.65;1.70;;;;;;;17.93;100.00;99961.41;5085245;27;20046;-77
2023/07/10 09:37:21;;;;;;;10.27;1.50;;;;;;;17.85;100.00;99962.44;5108998;27;20035;-77
2023/07/10 09:39:47;;;;;;;6.32;1.77;;;;;;;17.88;100.00;99957.72;5123981;27;20028;-80
2023/07/10 09:42:20;;;;;;;5.80;1.30;;;;;;;17.92;100.00;99956.28;5093972;27;20406;-80
2023/07/10 09:44:51;;;;;;;6.07;1.38;;;;;;;18.03;100.00;99952.19;5107362;28;20028;-80
2023/07/10 09:47:18;;;;;;;6.25;1.50;;;;;;;18.10;100.00;99947.63;5090975;27;20042;-81
2023/07/10 09:49:48;;;;;;;7.07;1.45;;;;;;;18.12;100.00;99942.13;5110587;28;20028;-77
2023/07/10 09:52:37;;;;;;;8.70;1.33;;;;;;;18.14;100.00;99934.72;5125082;27;20061;-78
2023/07/10 09:55:13;;;;;;;8.48;1.40;;;;;;;18.17;100.00;99939.66;5126103;27;20027;-78
2023/07/10 09:57:56;;;;;;;6.95;1.48;;;;;;;18.23;100.00;99938.81;5127787;27;20382;-78
2023/07/10 10:00:22;;;;;;;8.63;1.90;;;;;;;18.25;100.00;99936.75;5150644;27;20091;-81
2023/07/10 10:02:56;;;;;;;4.70;1.40;;;;;;;18.33;100.00;99939.19;5091207;27;20115;-80
2023/07/10 10:05:22;;;;;;;8.57;1.40;;;;;;;18.23;100.00;99938.81;5114046;27;20118;-81
2023/07/10 10:07:50;;;;;;;11.88;1.83;;;;;;;18.15;100.00;99929.16;5107878;27;20050;-80
2023/07/10 10:10:28;;;;;;;8.45;1.63;;;;;;;18.04;100.00;99919.88;5115781;27;20059;-80
2023/07/10 10:13:14;;;;;;;6.22;1.80;;;;;;;17.96;100.00;99918.22;5106058;27;20030;-79
2023/07/10 10:15:56;;;;;;;;;;;;;;;17.80;100.00;99921.31;5125722;27;20172;-79
2023/07/10 10:18:25;;;;;;;7.72;1.45;;;;;;;17.73;100.00;99914.13;5123304;27;19959;-79
2023/07/10 10:20:52;;;;;;;7.95;1.48;;;;;;;17.78;100.00;99910.84;5133832;27;20062;-77
2023/07/10 10:23:37;;;;;;;5.93;1.25;;;;;;;17.85;100.00;99906.28;5099524;27;20040;-76
2023/07/10 10:26:26;;;;;;;11.50;2.30;;;;;;;17.95;100.00;99902.38;5144680;27;20110;-79
2023/07/10 10:28:51;;;;;;;7.38;1.30;;;;;;;17.90;100.00;99905.69;5131083;27;20099;-80
2023/07/10 10:31:24;;;;;;;6.70;1.60;;;;;;;17.95;100.00;99897.03;5124347;27;20122;-80
2023/07/10 10:34:02;;;;;;;6.72;1.77;;;;;;;17.89;100.00;99893.34;5130461;27;20110;-80
2023/07/10 10:36:28;;;;;;;8.15;1.60;;;;;;;17.81;100.00;99893.56;5120942;27;20093;-80
2023/07/10 10:39:04;;;;;;;5.90;1.48;;;;;;;17.81;100.00;99897.06;5099375;27;20644;-80
2023/07/10 10:41:36;;;;;;;5.72;1.02;;;;;;;17.79;100.00;99893.75;5109826;27;20035;-81
2023/07/10 10:44:38;;;;;;;9.65;1.45;;;;;;;17.61;100.00;99897.06;5108195;27;20121;-80
2023/07/10 10:47:25;;;;;;;6.50;1.45;;;;;;;17.54;100.00;99888.19;5060122;27;20058;-79
2023/07/10 10:50:29;;;;;;;8.60;1.65;;;;;;;17.42;100.00;99885.31;5141478;27;20039;-80
2023/07/10 10:53:10;;;;;;;7.70;1.52;;;;;;;17.30;100.00;99882.41;5112951;27;20046;-80
2023/07/10 10:56:00;;;;;;;9.95;1.65;;;;;;;17.27;100.00;99883.66;5106705;27;20125;-78
2023/07/10 10:58:35;;;;;;;11.18;2.28;;;;;;;17.23;100.00;99885.91;5110602;27;20103;-79
2023/07/10 11:01:30;;;;;;;7.53;1.60;;;;;;;17.18;100.00;99879.53;5109998;27;20070;-79
2023/07/10 11:04:19;;;;;;;8.95;1.80;;;;;;;17.18;100.00;99883.03;5123610;27;20040;-79
2023/07/10 11:06:55;;;;;;;10.27;2.72;;;;;;;17.12;100.00;99881.13;5110089;27;20030;-81
2023/07/10 11:09:26;;;;;;;13.68;1.70;;;;;;;17.14;100.00;99881.78;5131977;27;20562;-80
2023/07/10 11:11:54;;;;;;;9.40;2.13;;;;;;;17.08;100.00;99882.59;5110257;27;20061;-80
2023/07/10 11:14:21;;;;;;;8.40;1.90;;;;;;;17.07;100.00;99887.06;5112683;27;20035;-79
2023/07/10 11:16:47;;;;;;;6.15;1.58;;;;;;;17.04;100.00;99887.47;5106180;27;20113;-80
2023/07/10 11:19:26;;;;;;;6.28;1.23;;;;;;;17.08;100.00;99877.25;5112308;27;20500;-80
2023/07/10 11:21:52;;;;;;;6.38;2.05;;;;;;;17.07;100.00;99880.91;5149646;27;20027;-82
2023/07/10 11:24:32;;;;;;;6.63;1.60;;;;;;;17.17;100.00;99869.88;5111462;27;20054;-80